Time;durP1;ratioP1;P1;durP2;ratioP2;P2;SDS_P1;SDS_P2;PMS_P1;PMS_P2;Temp;Humidity;BMP_temperature;BMP_pressure;BME280_temperature;BME280_humidity;BME280_pressure;Samples;Min_cycle;Max_cycle;Signal;HPM_P1;HPM_P2
2023/12/06 00:00:08;;;;;;;8.15;7.55;;;-2.90;99.90;;;;;;4939062;29;20225;-79
2023/12/06 00:02:35;;;;;;;13.63;12.10;;;-3.00;99.90;;;;;;4933401;29;20224;-82
2023/12/06 00:05:10;;;;;;;12.30;9.50;;;-3.00;99.90;;;;;;4931374;29;20276;-81
2023/12/06 00:07:39;;;;;;;10.60;9.60;;;-3.00;99.90;;;;;;4936759;29;20200;-80
2023/12/06 00:10:07;;;;;;;7.13;6.57;;;-2.90;99.90;;;;;;4941945;29;20209;-79
2023/12/06 00:12:34;;;;;;;19.42;10.15;;;-3.00;99.90;;;;;;4934741;29;20523;-80
2023/12/06 00:15:02;;;;;;;9.13;8.25;;;-3.00;99.90;;;;;;4934615;29;20209;-79
2023/12/06 00:17:31;;;;;;;11.48;9.52;;;-3.00;99.90;;;;;;4936728;29;20547;-76
2023/12/06 00:19:58;;;;;;;16.02;8.52;;;-3.10;99.90;;;;;;4931137;29;20271;-77
2023/12/06 00:22:25;;;;;;;13.02;11.63;;;-3.10;99.90;;;;;;4937721;29;20209;-79
2023/12/06 00:24:53;;;;;;;9.10;7.68;;;-3.10;99.90;;;;;;4935192;29;20215;-76
2023/12/06 00:27:21;;;;;;;9.05;8.02;;;-3.10;99.90;;;;;;4931627;29;20228;-78
2023/12/06 00:29:50;;;;;;;13.05;8.68;;;-3.00;99.90;;;;;;4939554;29;20204;-79
2023/12/06 00:32:17;;;;;;;5.00;4.70;;;-3.00;99.90;;;;;;4936254;29;20264;-77
2023/12/06 00:34:44;;;;;;;6.03;5.53;;;-3.00;99.90;;;;;;4931328;29;20277;-76
2023/12/06 00:37:11;;;;;;;11.15;10.05;;;-3.00;99.90;;;;;;4936387;29;20418;-79
2023/12/06 00:39:39;;;;;;;5.80;5.25;;;-3.10;99.90;;;;;;4938824;29;20584;-81
2023/12/06 00:42:05;;;;;;;11.55;10.45;;;-2.90;99.90;;;;;;4938051;29;20212;-79
2023/12/06 00:44:32;;;;;;;10.60;9.68;;;-3.00;99.90;;;;;;4936793;29;20276;-78
2023/12/06 00:47:00;;;;;;;5.10;3.83;;;-3.00;99.90;;;;;;4928743;29;20239;-81
2023/12/06 00:49:26;;;;;;;3.90;3.60;;;-3.10;99.90;;;;;;4925881;29;20281;-77
2023/12/06 00:51:53;;;;;;;20.92;9.63;;;-3.10;99.90;;;;;;4930849;29;20494;-77
2023/12/06 00:54:20;;;;;;;26.15;13.73;;;-3.10;99.90;;;;;;4944817;29;20212;-78
2023/12/06 00:56:48;;;;;;;19.98;8.32;;;-3.10;99.90;;;;;;4953567;29;20393;-78
2023/12/06 00:59:15;;;;;;;10.23;9.32;;;-3.20;99.90;;;;;;4947492;29;20204;-75
2023/12/06 01:01:42;;;;;;;11.68;9.48;;;-3.10;99.90;;;;;;4929847;29;20431;-77
2023/12/06 01:04:09;;;;;;;10.35;7.97;;;-3.20;99.90;;;;;;4928158;29;20209;-77
2023/12/06 01:06:36;;;;;;;25.70;11.48;;;-3.20;99.90;;;;;;4927691;29;20296;-78
2023/12/06 01:09:06;;;;;;;8.88;6.93;;;-3.20;99.90;;;;;;4935433;29;20212;-78
2023/12/06 01:11:33;;;;;;;12.43;5.50;;;-3.20;99.90;;;;;;4927482;29;20510;-78
2023/12/06 01:14:00;;;;;;;22.00;8.75;;;-3.10;99.90;;;;;;4935824;29;20335;-79
2023/12/06 01:16:27;;;;;;;14.52;8.32;;;-3.20;99.90;;;;;;4930487;29;20461;-78
2023/12/06 01:18:54;;;;;;;8.65;7.85;;;-3.10;99.90;;;;;;4934624;29;20247;-76
2023/12/06 01:21:21;;;;;;;14.95;10.88;;;-3.10;99.90;;;;;;4934440;29;20231;-77
2023/12/06 01:23:48;;;;;;;11.20;10.40;;;-3.00;99.90;;;;;;4934453;29;20479;-78
2023/12/06 01:26:15;;;;;;;7.90;7.20;;;-3.10;99.90;;;;;;4949012;29;20291;-78
2023/12/06 01:28:42;;;;;;;11.25;10.35;;;-3.10;99.90;;;;;;4934497;29;20205;-78
2023/12/06 01:31:11;;;;;;;6.13;5.57;;;-3.10;99.90;;;;;;4939265;29;20208;-78
2023/12/06 01:33:38;;;;;;;8.38;7.15;;;-3.00;99.90;;;;;;4934949;29;20272;-79
2023/12/06 01:36:05;;;;;;;11.48;10.50;;;-3.00;99.90;;;;;;4934774;29;20272;-76
2023/12/06 01:38:32;;;;;;;9.50;8.15;;;-3.00;99.90;;;;;;4937349;29;20228;-79
2023/12/06 01:40:59;;;;;;;11.73;8.60;;;-3.00;99.90;;;;;;4925827;29;20201;-78
2023/12/06 01:43:26;;;;;;;6.68;6.00;;;-3.00;99.90;;;;;;4933830;29;20466;-77
2023/12/06 01:45:54;;;;;;;10.27;7.00;;;-2.90;99.90;;;;;;4926266;29;20299;-77
2023/12/06 01:48:23;;;;;;;6.90;6.40;;;-2.90;99.90;;;;;;4934164;29;20205;-78
2023/12/06 01:50:52;;;;;;;7.70;7.20;;;-2.90;99.90;;;;;;4934032;29;20545;-77
2023/12/06 01:53:21;;;;;;;15.80;9.40;;;-2.80;99.90;;;;;;4942760;29;20197;-80
2023/12/06 01:55:49;;;;;;;7.38;6.80;;;-2.80;99.90;;;;;;4939528;29;20197;-79
2023/12/06 01:58:17;;;;;;;7.05;6.40;;;-2.80;99.90;;;;;;4936230;29;20204;-77
2023/12/06 02:00:45;;;;;;;6.65;6.10;;;-2.80;99.90;;;;;;4944943;29;20205;-79
2023/12/06 02:03:15;;;;;;;24.55;11.77;;;-2.80;99.90;;;;;;4931867;29;20208;-77
2023/12/06 02:05:43;;;;;;;18.83;7.45;;;-2.70;99.90;;;;;;4927039;29;20212;-77
2023/12/06 02:08:11;;;;;;;12.23;7.70;;;-2.80;99.90;;;;;;4929126;29;20228;-76
2023/12/06 02:10:37;;;;;;;8.70;8.10;;;-2.80;99.90;;;;;;4930385;29;20406;-77
2023/12/06 02:13:04;;;;;;;5.43;5.10;;;-2.90;99.90;;;;;;4926734;29;20205;-77
2023/12/06 02:15:32;;;;;;;11.25;10.07;;;-2.90;99.90;;;;;;4930628;29;20211;-79
2023/12/06 02:17:59;;;;;;;12.38;4.72;;;-2.90;99.90;;;;;;4929519;29;20248;-77
2023/12/06 02:20:27;;;;;;;12.73;10.48;;;-2.90;99.90;;;;;;4936222;29;20208;-77
2023/12/06 02:22:56;;;;;;;8.75;8.25;;;-2.90;99.90;;;;;;4929512;29;20300;-77
2023/12/06 02:25:23;;;;;;;11.95;10.27;;;-2.90;99.90;;;;;;4919813;29;20272;-77
2023/12/06 02:27:51;;;;;;;20.10;6.50;;;-2.90;99.90;;;;;;4927834;29;20259;-77
2023/12/06 02:30:18;;;;;;;20.00;10.23;;;-2.80;99.90;;;;;;4928968;29;20484;-78
2023/12/06 02:32:45;;;;;;;14.20;13.05;;;-2.90;99.90;;;;;;4933720;29;20213;-78
2023/12/06 02:35:30;;;;;;;20.08;10.77;;;-2.90;99.90;;;;;;4936907;29;20212;-79
2023/12/06 02:38:00;;;;;;;9.38;8.68;;;-2.80;99.90;;;;;;4949642;29;20228;-79
2023/12/06 02:40:30;;;;;;;8.05;7.40;;;-2.80;99.90;;;;;;4943319;29;20313;-79
2023/12/06 02:43:00;;;;;;;11.50;10.43;;;-2.80;99.90;;;;;;4936111;29;20225;-80
2023/12/06 02:45:27;;;;;;;10.68;9.88;;;-2.90;99.90;;;;;;4944881;29;20200;-80
2023/12/06 02:47:54;;;;;;;5.90;5.57;;;-2.80;99.90;;;;;;4937275;29;20239;-78
2023/12/06 02:50:21;;;;;;;7.40;6.05;;;-2.90;99.90;;;;;;4930188;29;20212;-80
2023/12/06 02:52:48;;;;;;;16.63;11.88;;;-2.90;99.90;;;;;;4932984;29;20205;-80
2023/12/06 02:55:15;;;;;;;7.18;6.55;;;-2.90;99.90;;;;;;4929361;29;20559;-83
2023/12/06 02:57:42;;;;;;;8.35;7.53;;;-2.90;99.90;;;;;;4934122;29;20268;-81
2023/12/06 03:00:10;;;;;;;11.93;10.07;;;-2.90;99.90;;;;;;4925513;29;20209;-76
2023/12/06 03:02:37;;;;;;;10.70;9.85;;;-2.90;99.90;;;;;;4924309;29;20205;-78
2023/12/06 03:05:05;;;;;;;9.73;9.13;;;-2.90;99.90;;;;;;4933673;29;20223;-79
2023/12/06 03:07:32;;;;;;;8.10;7.40;;;-2.90;99.90;;;;;;4936164;29;20232;-78
2023/12/06 03:10:00;;;;;;;11.07;10.20;;;-2.90;99.90;;;;;;4925382;29;20544;-81
2023/12/06 03:12:27;;;;;;;10.88;9.88;;;-2.90;99.90;;;;;;4931071;29;20204;-77
2023/12/06 03:14:55;;;;;;;5.78;5.35;;;-2.80;99.90;;;;;;4937184;29;20446;-76
2023/12/06 03:17:21;;;;;;;9.32;8.60;;;-2.80;99.90;;;;;;4942029;29;20293;-77
2023/12/06 03:19:50;;;;;;;7.75;7.15;;;-2.80;99.90;;;;;;4937997;29;20275;-80
2023/12/06 03:22:17;;;;;;;10.88;9.93;;;-2.80;99.90;;;;;;4934565;29;20231;-78
2023/12/06 03:24:44;;;;;;;8.27;7.68;;;-2.80;99.90;;;;;;4939956;29;20230;-83
2023/12/06 03:27:12;;;;;;;9.25;8.48;;;-2.80;99.90;;;;;;4928755;29;20242;-78
2023/12/06 03:29:39;;;;;;;11.20;10.13;;;-2.80;99.90;;;;;;4932718;29;20239;-77
2023/12/06 03:32:07;;;;;;;6.40;6.05;;;-2.80;99.90;;;;;;4929953;29;20512;-78
2023/12/06 03:34:34;;;;;;;6.25;5.95;;;-2.80;99.90;;;;;;4940388;29;20232;-80
2023/12/06 03:37:03;;;;;;;8.98;8.07;;;-2.70;99.90;;;;;;4930101;29;20209;-80
2023/12/06 03:39:32;;;;;;;9.43;7.03;;;-2.70;99.90;;;;;;4945774;29;20208;-81
2023/12/06 03:41:59;;;;;;;14.00;7.45;;;-2.70;99.90;;;;;;4934289;29;20226;-78
2023/12/06 03:44:26;;;;;;;5.68;5.18;;;-2.70;99.90;;;;;;4942239;29;20239;-82
2023/12/06 03:46:54;;;;;;;14.27;9.75;;;-2.70;99.90;;;;;;4928828;29;20232;-80
2023/12/06 03:49:21;;;;;;;8.52;7.85;;;-2.70;99.90;;;;;;4945391;29;20250;-81
2023/12/06 03:51:50;;;;;;;13.82;12.20;;;-2.70;99.90;;;;;;4937913;29;20201;-81
2023/12/06 03:54:18;;;;;;;6.85;6.35;;;-2.70;99.90;;;;;;4945348;29;20209;-83
2023/12/06 03:56:45;;;;;;;7.47;6.55;;;-2.70;99.90;;;;;;4939692;29;20212;-79
2023/12/06 03:59:12;;;;;;;7.28;6.40;;;-2.70;99.90;;;;;;4944973;29;20260;-80
2023/12/06 04:01:43;;;;;;;8.05;7.43;;;-2.70;99.90;;;;;;4954456;29;20269;-77
2023/12/06 04:04:12;;;;;;;6.68;6.28;;;-2.60;99.90;;;;;;4946011;29;20233;-77
2023/12/06 04:06:40;;;;;;;5.95;5.40;;;-2.60;99.90;;;;;;4949852;29;20228;-78
2023/12/06 04:09:07;;;;;;;13.55;12.38;;;-2.60;99.90;;;;;;4927995;29;20253;-78
2023/12/06 04:11:34;;;;;;;5.78;5.40;;;-2.50;99.90;;;;;;4929928;29;20213;-77
2023/12/06 04:14:01;;;;;;;7.78;6.55;;;-2.50;99.90;;;;;;4943740;29;20204;-77
2023/12/06 04:16:29;;;;;;;6.78;5.97;;;-2.50;99.90;;;;;;4936252;29;20272;-77
2023/12/06 04:18:57;;;;;;;8.10;7.40;;;-2.50;99.90;;;;;;4939935;29;20268;-78
2023/12/06 04:21:24;;;;;;;7.57;6.95;;;-2.50;99.90;;;;;;4936463;29;20260;-78
2023/12/06 04:23:52;;;;;;;13.75;11.77;;;-2.50;99.90;;;;;;4931031;29;20263;-78
2023/12/06 04:26:18;;;;;;;12.05;10.38;;;-2.50;99.90;;;;;;4935210;29;20280;-80
2023/12/06 04:28:46;;;;;;;8.35;7.47;;;-2.50;99.90;;;;;;4925550;29;20208;-79
2023/12/06 04:31:13;;;;;;;18.25;14.13;;;-2.40;99.90;;;;;;4924184;29;20510;-78
2023/12/06 04:33:40;;;;;;;7.13;5.20;;;-2.40;99.90;;;;;;4928586;29;20232;-82
2023/12/06 04:36:08;;;;;;;6.30;5.68;;;-2.40;99.90;;;;;;4926389;29;20237;-79
2023/12/06 04:38:35;;;;;;;6.80;6.30;;;-2.40;99.90;;;;;;4935807;29;20232;-79
2023/12/06 04:41:02;;;;;;;7.43;6.90;;;-2.50;99.90;;;;;;4936808;29;20236;-77
2023/12/06 04:43:29;;;;;;;9.88;9.23;;;-2.50;99.90;;;;;;4941101;29;20279;-80
2023/12/06 04:45:56;;;;;;;6.38;5.50;;;-2.50;99.90;;;;;;4929723;29;20235;-79
2023/12/06 04:48:23;;;;;;;11.10;9.88;;;-2.40;99.90;;;;;;4926983;29;20240;-79
2023/12/06 04:50:52;;;;;;;9.48;8.93;;;-2.40;99.90;;;;;;4928690;29;20409;-78
2023/12/06 04:53:18;;;;;;;12.90;9.77;;;-2.50;99.90;;;;;;4927071;29;20228;-82
2023/12/06 04:55:46;;;;;;;7.88;7.38;;;-2.50;99.90;;;;;;4943589;29;20276;-81
2023/12/06 04:58:13;;;;;;;14.23;13.13;;;-2.50;99.90;;;;;;4951307;29;20212;-81
2023/12/06 05:00:43;;;;;;;7.85;7.18;;;-2.40;99.90;;;;;;4942614;29;20229;-78
2023/12/06 05:03:11;;;;;;;22.33;4.55;;;-2.40;99.90;;;;;;4932910;29;20327;-79
2023/12/06 05:05:37;;;;;;;8.23;7.53;;;-2.50;99.90;;;;;;4942450;29;20208;-78
2023/12/06 05:08:05;;;;;;;7.85;7.30;;;-2.40;99.90;;;;;;4929665;29;20288;-80
2023/12/06 05:10:32;;;;;;;12.75;11.48;;;-2.40;99.90;;;;;;4941594;29;20244;-79
2023/12/06 05:12:59;;;;;;;8.48;7.97;;;-2.40;99.90;;;;;;4932407;29;20205;-81
2023/12/06 05:15:27;;;;;;;7.38;6.60;;;-2.50;99.90;;;;;;4936400;29;20227;-80
2023/12/06 05:17:55;;;;;;;5.88;5.35;;;-2.50;99.90;;;;;;4929887;29;20442;-80
2023/12/06 05:20:23;;;;;;;19.00;9.02;;;-2.50;99.90;;;;;;4933383;29;20711;-78
2023/12/06 05:22:51;;;;;;;6.75;6.10;;;-2.40;99.90;;;;;;4931175;29;20213;-76
2023/12/06 05:25:19;;;;;;;7.05;6.65;;;-2.40;99.90;;;;;;4939577;29;20212;-78
2023/12/06 05:27:46;;;;;;;10.85;9.77;;;-2.50;99.90;;;;;;4947683;29;20235;-79
2023/12/06 05:30:14;;;;;;;14.55;9.32;;;-2.50;99.90;;;;;;4943824;29;20231;-78
2023/12/06 05:32:42;;;;;;;12.00;7.15;;;-2.50;99.90;;;;;;4945357;29;20441;-79
2023/12/06 05:35:09;;;;;;;7.30;6.93;;;-2.50;99.90;;;;;;4927756;29;20590;-78
2023/12/06 05:37:36;;;;;;;13.35;9.35;;;-2.50;99.90;;;;;;4924435;29;20205;-77
2023/12/06 05:40:03;;;;;;;6.93;6.63;;;-2.50;99.90;;;;;;4927513;29;20212;-78
2023/12/06 05:42:30;;;;;;;6.28;6.03;;;-2.60;99.90;;;;;;4936407;29;20200;-80
2023/12/06 05:44:58;;;;;;;6.53;6.10;;;-2.50;99.90;;;;;;4962433;29;20205;-79
2023/12/06 05:47:25;;;;;;;8.90;8.15;;;-2.60;99.90;;;;;;4957423;29;20275;-79
2023/12/06 05:49:52;;;;;;;11.02;10.23;;;-2.60;99.90;;;;;;4936879;29;20205;-80
2023/12/06 05:52:19;;;;;;;6.20;5.70;;;-2.60;99.90;;;;;;4926978;29;20205;-79
2023/12/06 05:54:47;;;;;;;7.80;7.32;;;-2.60;99.90;;;;;;4938656;29;20517;-77
2023/12/06 05:57:14;;;;;;;13.57;9.65;;;-2.60;99.90;;;;;;4933856;29;20212;-78
2023/12/06 05:59:42;;;;;;;10.45;9.60;;;-2.70;99.90;;;;;;4930292;29;20230;-79
2023/12/06 06:02:09;;;;;;;15.20;11.23;;;-2.70;99.90;;;;;;4926291;29;20276;-78
2023/12/06 06:04:36;;;;;;;24.05;12.13;;;-2.70;99.90;;;;;;4934481;29;20212;-79
2023/12/06 06:07:04;;;;;;;13.60;12.40;;;-2.70;99.90;;;;;;4933639;29;20251;-78
2023/12/06 06:09:31;;;;;;;8.02;7.53;;;-2.70;99.90;;;;;;4926853;29;20209;-77
2023/12/06 06:11:58;;;;;;;18.52;16.48;;;-2.70;99.90;;;;;;4939854;29;20351;-79
2023/12/06 06:14:26;;;;;;;23.85;8.70;;;-2.80;99.90;;;;;;4921116;29;20218;-77
2023/12/06 06:16:53;;;;;;;12.32;11.32;;;-2.70;99.90;;;;;;4932120;29;20212;-77
2023/12/06 06:19:20;;;;;;;16.50;11.27;;;-2.60;99.90;;;;;;4947996;29;20268;-78
2023/12/06 06:21:47;;;;;;;9.10;8.50;;;-2.60;99.90;;;;;;4930355;29;20204;-79
2023/12/06 06:24:14;;;;;;;11.00;8.23;;;-2.60;99.90;;;;;;4934851;29;20248;-78
2023/12/06 06:26:41;;;;;;;10.43;9.73;;;-2.60;99.90;;;;;;4936638;29;20417;-77
2023/12/06 06:29:09;;;;;;;7.63;7.18;;;-2.60;99.90;;;;;;4936734;29;20225;-76
2023/12/06 06:31:36;;;;;;;7.88;7.28;;;-2.60;99.90;;;;;;4929102;29;20243;-76
2023/12/06 06:34:03;;;;;;;6.13;5.82;;;-2.60;99.90;;;;;;4924277;29;20213;-79
2023/12/06 06:36:31;;;;;;;10.90;9.98;;;-2.60;99.90;;;;;;4926296;29;20279;-80
2023/12/06 06:38:59;;;;;;;6.65;6.18;;;-2.60;99.90;;;;;;4931568;29;20227;-81
2023/12/06 06:41:27;;;;;;;13.38;6.93;;;-2.50;99.90;;;;;;4924672;29;20201;-78
2023/12/06 06:43:54;;;;;;;10.45;6.88;;;-2.50;99.90;;;;;;4928368;29;20389;-79
2023/12/06 06:46:21;;;;;;;14.00;11.77;;;-2.50;99.90;;;;;;4926154;29;20394;-78
2023/12/06 06:48:48;;;;;;;7.88;7.38;;;-2.50;99.90;;;;;;4932253;29;20291;-79
2023/12/06 06:51:15;;;;;;;17.63;8.05;;;-2.50;99.90;;;;;;4930458;29;20209;-81
2023/12/06 06:53:42;;;;;;;13.85;10.10;;;-2.40;99.90;;;;;;4930749;29;20287;-81
2023/12/06 06:56:10;;;;;;;6.65;6.15;;;-2.50;99.90;;;;;;4931599;29;20257;-80
2023/12/06 06:58:41;;;;;;;7.72;7.22;;;-2.50;99.90;;;;;;4935193;29;20223;-81
2023/12/06 07:01:08;;;;;;;5.93;5.63;;;-2.50;99.90;;;;;;4928407;29;20263;-79
2023/12/06 07:03:36;;;;;;;13.07;12.00;;;-2.50;99.90;;;;;;4930492;29;20204;-80
2023/12/06 07:06:03;;;;;;;10.52;9.05;;;-2.50;99.90;;;;;;4930104;29;20228;-76
2023/12/06 07:08:30;;;;;;;10.23;9.23;;;-2.50;99.90;;;;;;4929550;29;20220;-78
2023/12/06 07:10:57;;;;;;;10.02;9.13;;;-2.50;99.90;;;;;;4932563;29;20240;-78
2023/12/06 07:13:26;;;;;;;8.27;7.55;;;-2.40;99.90;;;;;;4939833;29;20219;-77
2023/12/06 07:15:53;;;;;;;7.47;7.07;;;-2.40;99.90;;;;;;4927470;29;20422;-80
2023/12/06 07:18:20;;;;;;;11.35;10.20;;;-2.40;99.90;;;;;;4926309;29;20276;-83
2023/12/06 07:20:49;;;;;;;14.07;12.70;;;-2.30;99.90;;;;;;4931588;29;20334;-82
2023/12/06 07:23:16;;;;;;;8.38;7.57;;;-2.30;99.90;;;;;;4925634;29;20248;-80
2023/12/06 07:25:46;;;;;;;5.65;5.43;;;-2.40;99.90;;;;;;4925905;29;20245;-78
2023/12/06 07:28:13;;;;;;;6.13;5.75;;;-2.30;99.90;;;;;;4936859;29;20232;-79
2023/12/06 07:30:41;;;;;;;7.68;6.97;;;-2.30;99.90;;;;;;4923582;29;20396;-77
2023/12/06 07:33:08;;;;;;;4.68;4.32;;;-2.40;99.90;;;;;;4930166;29;20249;-78
2023/12/06 07:35:36;;;;;;;6.75;6.35;;;-2.30;99.90;;;;;;4935657;29;20233;-81
2023/12/06 07:38:09;;;;;;;7.78;7.18;;;-2.10;99.90;;;;;;4917947;29;20205;-81
2023/12/06 07:40:37;;;;;;;9.57;7.57;;;-2.20;99.90;;;;;;4924802;29;20205;-81
2023/12/06 07:43:04;;;;;;;5.30;5.00;;;-2.20;99.90;;;;;;4931603;29;20232;-80
2023/12/06 07:45:31;;;;;;;12.00;11.05;;;-2.20;99.90;;;;;;4924471;29;20215;-80
2023/12/06 07:47:58;;;;;;;4.43;4.15;;;-2.20;99.90;;;;;;4922789;29;20267;-82
2023/12/06 07:50:25;;;;;;;7.78;5.28;;;-2.20;99.90;;;;;;4935562;29;20212;-80
2023/12/06 07:52:53;;;;;;;16.33;9.55;;;-2.20;99.90;;;;;;4934209;29;20205;-78
2023/12/06 07:55:22;;;;;;;9.15;8.35;;;-2.10;99.90;;;;;;4926586;29;20272;-78
2023/12/06 07:57:53;;;;;;;24.23;9.00;;;-2.10;99.90;;;;;;4927960;29;20216;-82
2023/12/06 08:00:20;;;;;;;8.63;7.68;;;-2.10;99.90;;;;;;4935782;29;20209;-79
2023/12/06 08:02:47;;;;;;;10.05;8.10;;;-2.10;99.90;;;;;;4926813;29;20205;-83
2023/12/06 08:05:16;;;;;;;4.25;4.05;;;-2.00;99.90;;;;;;4936880;29;20205;-82
2023/12/06 08:07:42;;;;;;;7.72;7.15;;;-2.00;99.90;;;;;;4928287;29;20267;-79
2023/12/06 08:10:12;;;;;;;7.20;6.55;;;-2.00;99.90;;;;;;4929621;29;20277;-81
2023/12/06 08:12:40;;;;;;;7.80;7.18;;;-2.00;99.90;;;;;;4943318;29;20199;-79
2023/12/06 08:15:08;;;;;;;14.07;12.45;;;-2.00;99.90;;;;;;4932456;29;20198;-78
2023/12/06 08:17:35;;;;;;;29.67;12.05;;;-2.00;99.90;;;;;;4938236;29;20449;-78
2023/12/06 08:20:05;;;;;;;11.60;10.77;;;-1.90;99.90;;;;;;4933911;29;20204;-79
2023/12/06 08:22:32;;;;;;;13.50;8.88;;;-1.80;99.90;;;;;;4926315;29;20247;-78
2023/12/06 08:24:59;;;;;;;7.30;6.90;;;-1.70;99.90;;;;;;4937431;29;20204;-78
2023/12/06 08:27:29;;;;;;;8.63;8.00;;;-1.80;99.90;;;;;;4939471;29;20216;-86
2023/12/06 08:30:00;;;;;;;9.68;4.97;;;-1.70;99.90;;;;;;4925630;29;20509;-81
2023/12/06 08:32:27;;;;;;;6.72;6.25;;;-1.80;99.90;;;;;;4930563;29;20637;-84
2023/12/06 08:34:55;;;;;;;4.85;4.55;;;-1.80;99.90;;;;;;4929554;29;20258;-79
2023/12/06 08:37:25;;;;;;;7.68;7.07;;;-1.80;99.90;;;;;;4937138;29;20223;-80
2023/12/06 08:39:52;;;;;;;11.20;10.23;;;-1.60;99.90;;;;;;4935621;29;20213;-79
2023/12/06 08:42:20;;;;;;;5.50;5.15;;;-1.60;99.90;;;;;;4935649;29;20208;-82
2023/12/06 08:44:47;;;;;;;9.18;8.65;;;-1.60;99.90;;;;;;4924951;29;20215;-80
2023/12/06 08:47:17;;;;;;;7.40;6.80;;;-1.50;99.90;;;;;;4939588;29;20268;-80
2023/12/06 08:49:45;;;;;;;13.18;7.38;;;-1.60;99.90;;;;;;4930919;29;20490;-83
2023/12/06 08:52:12;;;;;;;7.60;7.15;;;-1.50;99.90;;;;;;4930474;29;20535;-79
2023/12/06 08:54:39;;;;;;;6.28;5.25;;;-1.50;99.90;;;;;;4928081;29;20213;-79
2023/12/06 08:57:07;;;;;;;12.45;10.07;;;-1.40;99.90;;;;;;4926709;29;20213;-79
2023/12/06 08:59:34;;;;;;;4.72;4.53;;;-1.40;99.90;;;;;;4928907;29;20599;-79
2023/12/06 09:02:01;;;;;;;21.30;11.98;;;-1.30;99.90;;;;;;4933849;29;20256;-79
2023/12/06 09:04:29;;;;;;;7.95;7.55;;;-1.30;99.90;;;;;;4928902;29;20201;-79
2023/12/06 09:06:56;;;;;;;5.93;4.82;;;-1.20;99.90;;;;;;4920705;29;20241;-79
2023/12/06 09:09:23;;;;;;;6.22;5.80;;;-1.10;99.90;;;;;;4929413;29;20237;-83
2023/12/06 09:11:50;;;;;;;5.70;5.20;;;-1.00;99.90;;;;;;4922981;29;20241;-79
2023/12/06 09:14:18;;;;;;;9.68;8.65;;;-1.00;99.90;;;;;;4924981;29;20216;-79
2023/12/06 09:16:45;;;;;;;8.98;8.07;;;-0.90;99.90;;;;;;4926112;29;20200;-80
2023/12/06 09:19:13;;;;;;;9.13;8.00;;;-0.80;99.90;;;;;;4923410;29;20501;-81
2023/12/06 09:21:43;;;;;;;13.32;8.90;;;-0.70;99.90;;;;;;4928130;29;20272;-80
2023/12/06 09:24:11;;;;;;;5.63;5.32;;;-0.70;99.90;;;;;;4927326;29;20624;-80
2023/12/06 09:26:39;;;;;;;12.82;10.48;;;-0.80;99.90;;;;;;4927353;29;20214;-79
2023/12/06 09:29:10;;;;;;;12.93;8.20;;;-0.90;99.90;;;;;;4931556;29;20839;-78
2023/12/06 09:31:38;;;;;;;7.90;7.13;;;-0.80;99.90;;;;;;4935509;29;20280;-79
2023/12/06 09:34:05;;;;;;;8.93;8.20;;;-0.90;99.90;;;;;;4932292;29;20232;-81
2023/12/06 09:36:32;;;;;;;12.25;6.88;;;-0.90;99.90;;;;;;4928543;29;20209;-81
2023/12/06 09:39:00;;;;;;;8.50;7.72;;;-0.80;99.90;;;;;;4930865;29;20293;-81
2023/12/06 09:41:28;;;;;;;9.85;8.93;;;-0.70;99.90;;;;;;4931180;29;20564;-80
2023/12/06 09:43:56;;;;;;;8.23;7.50;;;-0.70;99.90;;;;;;4938323;29;20208;-79
2023/12/06 09:46:23;;;;;;;5.55;5.05;;;-0.80;99.90;;;;;;4925087;29;20216;-80
2023/12/06 09:48:52;;;;;;;8.07;7.43;;;-0.70;99.90;;;;;;4926049;29;20228;-82
2023/12/06 09:51:20;;;;;;;8.27;7.65;;;-0.70;99.90;;;;;;4925726;29;20405;-80
2023/12/06 09:53:48;;;;;;;5.93;5.38;;;-0.60;99.90;;;;;;4925449;29;20201;-80
2023/12/06 09:56:18;;;;;;;6.22;5.82;;;-0.60;99.90;;;;;;4924552;29;20207;-82
2023/12/06 09:58:45;;;;;;;8.35;7.55;;;-0.40;99.90;;;;;;4933986;29;20204;-80
2023/12/06 10:01:13;;;;;;;10.48;8.85;;;-0.50;99.90;;;;;;4935418;29;20220;-80
2023/12/06 10:03:42;;;;;;;5.13;4.93;;;-0.50;99.90;;;;;;4925266;29;20543;-82
2023/12/06 10:06:09;;;;;;;6.45;5.88;;;-0.30;99.90;;;;;;4927004;29;20205;-81
2023/12/06 10:08:37;;;;;;;6.32;5.90;;;-0.20;99.90;;;;;;4932210;29;20747;-79
2023/12/06 10:11:06;;;;;;;6.18;5.90;;;-0.10;99.90;;;;;;4936039;29;20216;-81
2023/12/06 10:13:38;;;;;;;10.38;9.57;;;-0.10;99.90;;;;;;4932052;29;20332;-80
2023/12/06 10:16:19;;;;;;;7.18;6.50;;;-0.10;99.90;;;;;;4925457;29;20209;-81
2023/12/06 10:18:48;;;;;;;6.82;6.30;;;-0.10;99.90;;;;;;4933559;29;20208;-82
2023/12/06 10:21:17;;;;;;;9.13;7.07;;;0.00;99.90;;;;;;4932909;29;20639;-84
2023/12/06 10:23:59;;;;;;;7.53;6.80;;;-0.10;99.90;;;;;;4925902;29;20215;-83
2023/12/06 10:26:28;;;;;;;8.65;8.10;;;-0.10;99.90;;;;;;4935424;29;20200;-81
2023/12/06 10:28:58;;;;;;;5.78;5.32;;;0.00;99.90;;;;;;4945080;29;20208;-82
2023/12/06 10:31:26;;;;;;;7.03;6.47;;;-0.10;99.90;;;;;;4945955;29;20464;-81
2023/12/06 10:33:55;;;;;;;6.30;6.00;;;0.00;99.90;;;;;;4934167;29;20201;-82
2023/12/06 10:36:27;;;;;;;11.82;9.52;;;0.10;99.90;;;;;;4928390;29;20233;-80
2023/12/06 10:38:57;;;;;;;8.00;6.85;;;0.20;99.90;;;;;;4924912;29;20233;-82
2023/12/06 10:41:28;;;;;;;13.00;9.70;;;0.30;99.90;;;;;;4933289;29;20272;-82
2023/12/06 10:43:57;;;;;;;8.18;7.68;;;0.10;99.90;;;;;;4935117;29;20211;-83
2023/12/06 10:46:26;;;;;;;3.83;3.63;;;0.20;99.90;;;;;;4935277;29;20216;-82
2023/12/06 10:48:55;;;;;;;4.65;4.32;;;0.10;99.90;;;;;;4930983;29;20295;-80
2023/12/06 10:51:24;;;;;;;11.05;10.25;;;0.20;99.90;;;;;;4932552;29;20281;-82
2023/12/06 10:53:54;;;;;;;3.60;3.50;;;0.30;99.90;;;;;;4924642;29;20386;-82
2023/12/06 10:56:23;;;;;;;5.28;4.40;;;0.30;99.90;;;;;;4925095;29;20199;-81
2023/12/06 10:58:52;;;;;;;7.38;6.88;;;0.40;99.90;;;;;;4921562;29;20242;-82
2023/12/06 11:01:20;;;;;;;7.35;6.75;;;0.40;99.90;;;;;;4933959;29;20221;-85
2023/12/06 11:03:47;;;;;;;5.43;5.13;;;0.30;99.90;;;;;;4943473;29;20200;-82
2023/12/06 11:06:46;;;;;;;5.55;5.30;;;0.50;99.90;;;;;;4938354;29;20280;-83
2023/12/06 11:09:38;;;;;;;7.00;6.60;;;0.50;99.90;;;;;;4925480;29;20213;-81
2023/12/06 11:12:05;;;;;;;10.27;9.45;;;0.50;99.90;;;;;;4928632;29;20208;-82
2023/12/06 11:14:56;;;;;;;10.73;9.85;;;0.60;99.90;;;;;;4936975;29;20239;-81
2023/12/06 11:17:51;;;;;;;5.15;4.78;;;0.60;99.90;;;;;;4933315;29;20240;-81
2023/12/06 11:20:20;;;;;;;3.85;3.65;;;0.50;99.90;;;;;;4932881;29;20209;-87
2023/12/06 11:22:48;;;;;;;5.63;5.22;;;0.50;99.90;;;;;;4919599;29;20204;-80
2023/12/06 11:25:27;;;;;;;10.40;9.27;;;0.60;99.90;;;;;;4932748;29;20205;-81
2023/12/06 11:27:55;;;;;;;8.95;5.80;;;0.60;99.90;;;;;;4935679;29;20204;-81
2023/12/06 11:30:22;;;;;;;6.13;5.82;;;0.70;99.90;;;;;;4932211;29;20249;-82
2023/12/06 11:32:56;;;;;;;6.50;6.10;;;0.60;99.90;;;;;;4943954;29;20227;-82
2023/12/06 11:35:24;;;;;;;10.23;6.70;;;0.50;99.90;;;;;;4932972;29;20371;-80
2023/12/06 11:37:53;;;;;;;4.97;4.70;;;0.60;99.90;;;;;;4939645;29;20200;-83
2023/12/06 11:40:27;;;;;;;8.10;7.50;;;0.60;99.90;;;;;;4938687;29;20208;-82
2023/12/06 11:43:00;;;;;;;8.18;7.57;;;0.60;99.90;;;;;;4938928;29;20241;-81
2023/12/06 11:45:29;;;;;;;4.57;4.28;;;0.70;99.90;;;;;;4936180;29;20276;-84
2023/12/06 11:48:05;;;;;;;8.30;7.63;;;0.60;99.90;;;;;;4937737;29;20193;-82
2023/12/06 11:50:46;;;;;;;9.32;7.55;;;0.60;99.90;;;;;;4946819;29;20220;-82
2023/12/06 11:53:13;;;;;;;10.57;5.55;;;0.60;99.90;;;;;;4938651;29;20202;-82
2023/12/06 11:55:42;;;;;;;9.63;8.85;;;0.60;99.90;;;;;;4939097;29;20219;-80
2023/12/06 11:58:11;;;;;;;6.53;5.90;;;0.70;99.90;;;;;;4943344;29;20215;-82
2023/12/06 12:00:42;;;;;;;3.40;3.30;;;0.70;99.90;;;;;;4942138;29;20233;-82
2023/12/06 12:05:38;;;;;;;5.07;4.68;;;0.70;99.90;;;;;;4896648;29;20447;-81
2023/12/06 12:08:07;;;;;;;6.93;6.05;;;0.70;99.90;;;;;;4897618;29;20274;-81
2023/12/06 12:10:35;;;;;;;7.32;6.80;;;0.60;99.90;;;;;;4890562;29;20258;-80
2023/12/06 12:13:03;;;;;;;15.98;11.35;;;0.70;99.90;;;;;;4897603;29;20266;-80
2023/12/06 12:16:08;;;;;;;9.75;8.88;;;0.80;99.90;;;;;;4901867;29;20218;-83
2023/12/06 12:18:38;;;;;;;7.15;5.82;;;0.90;99.90;;;;;;4889015;29;20268;-83
2023/12/06 12:21:19;;;;;;;5.28;4.85;;;0.90;99.90;;;;;;4890001;29;20309;-80
2023/12/06 12:23:47;;;;;;;5.63;5.40;;;0.90;99.90;;;;;;4893474;29;20213;-83
2023/12/06 12:26:17;;;;;;;4.78;4.38;;;0.80;99.90;;;;;;4906977;29;20221;-86
2023/12/06 12:28:45;;;;;;;7.30;6.60;;;1.30;99.90;;;;;;4895679;29;20237;-86
2023/12/06 12:31:18;;;;;;;8.32;7.70;;;0.70;99.90;;;;;;4907708;29;20197;-84
2023/12/06 12:33:46;;;;;;;8.02;7.55;;;0.70;99.90;;;;;;4902608;29;20292;-83
2023/12/06 12:36:24;;;;;;;12.55;10.98;;;0.70;99.90;;;;;;4909655;29;20217;-81
2023/12/06 12:38:58;;;;;;;10.10;9.43;;;0.60;99.90;;;;;;4890438;29;20235;-81
2023/12/06 12:41:25;;;;;;;14.45;10.20;;;0.60;99.90;;;;;;4897602;29;20210;-79
2023/12/06 12:43:54;;;;;;;7.25;5.90;;;0.60;99.90;;;;;;4903576;29;20259;-86
2023/12/06 12:46:26;;;;;;;7.40;6.80;;;0.60;99.90;;;;;;4900375;29;20213;-89
2023/12/06 12:48:55;;;;;;;6.15;5.25;;;0.50;99.90;;;;;;4882139;29;20218;-86
2023/12/06 12:51:23;;;;;;;6.07;5.53;;;0.50;99.90;;;;;;4894368;29;20214;-82